Time;durP1;ratioP1;P1;durP2;ratioP2;P2;SDS_P1;SDS_P2;PMS_P1;PMS_P2;Temp;Humidity;BMP_temperature;BMP_pressure;BME280_temperature;BME280_humidity;BME280_pressure;Samples;Min_cycle;Max_cycle;Signal;HPM_P1;HPM_P2
2022/02/15 00:01:17;;;;;;;20.60;14.43;;;3.00;64.20;;;;;;5054160;28;20488;-61
2022/02/15 00:03:43;;;;;;;27.55;19.20;;;3.00;64.10;;;;;;5045585;28;20026;-61
2022/02/15 00:06:08;;;;;;;29.02;17.38;;;3.00;64.20;;;;;;5059377;28;20036;-61
2022/02/15 00:08:34;;;;;;;27.95;20.27;;;3.00;64.20;;;;;;5070090;28;20377;-61
2022/02/15 00:11:00;;;;;;;27.52;17.33;;;3.00;64.30;;;;;;5056019;28;20082;-61
2022/02/15 00:13:25;;;;;;;34.38;19.73;;;3.00;64.20;;;;;;5055508;28;20025;-61
2022/02/15 00:15:51;;;;;;;19.80;14.00;;;2.90;64.20;;;;;;5055603;28;20068;-61
2022/02/15 00:18:17;;;;;;;24.20;16.00;;;2.90;64.50;;;;;;5056016;28;20032;-61
2022/02/15 00:20:44;;;;;;;26.05;16.80;;;2.90;64.60;;;;;;5055428;28;20104;-61
2022/02/15 00:23:10;;;;;;;28.00;19.20;;;2.90;64.50;;;;;;5055585;28;20507;-61
2022/02/15 00:25:36;;;;;;;22.20;15.00;;;2.90;64.50;;;;;;5055416;28;20086;-61
2022/02/15 00:28:02;;;;;;;25.08;18.17;;;2.90;64.50;;;;;;5055563;28;20436;-61
2022/02/15 00:30:28;;;;;;;21.80;14.10;;;2.80;64.60;;;;;;5050737;28;20103;-61
2022/02/15 00:32:53;;;;;;;22.55;12.90;;;2.80;64.70;;;;;;5075277;28;20052;-61
2022/02/15 00:35:19;;;;;;;22.67;14.10;;;2.80;64.80;;;;;;5069435;28;20112;-61
2022/02/15 00:37:45;;;;;;;16.05;11.27;;;2.80;64.90;;;;;;5055423;28;20542;-61
2022/02/15 00:40:12;;;;;;;17.92;11.70;;;2.70;64.90;;;;;;5055226;28;20025;-61
2022/02/15 00:42:38;;;;;;;16.27;10.57;;;2.80;65.10;;;;;;5055040;28;20024;-61
2022/02/15 00:45:05;;;;;;;19.17;12.63;;;2.80;65.10;;;;;;5055077;28;20021;-61
2022/02/15 00:47:31;;;;;;;15.35;9.10;;;2.80;65.10;;;;;;5062552;28;20024;-61
2022/02/15 00:49:56;;;;;;;16.02;10.25;;;2.80;65.10;;;;;;5056653;28;20031;-61
2022/02/15 00:52:22;;;;;;;16.17;11.48;;;2.80;65.20;;;;;;5055013;28;20029;-61
2022/02/15 00:54:48;;;;;;;16.00;10.88;;;2.90;65.30;;;;;;5052820;28;20388;-61
2022/02/15 00:57:15;;;;;;;15.82;12.00;;;2.90;65.10;;;;;;5061809;28;20116;-61
2022/02/15 00:59:42;;;;;;;16.38;10.48;;;2.90;65.20;;;;;;5068374;28;20024;-61
2022/02/15 01:02:07;;;;;;;17.73;11.38;;;2.90;65.00;;;;;;5054366;28;20052;-61
2022/02/15 01:04:33;;;;;;;18.27;11.77;;;2.90;65.00;;;;;;5057184;28;20075;-61
2022/02/15 01:10:21;;;;;;;22.55;11.98;;;2.90;65.10;;;;;;5053512;28;20696;-61
2022/02/15 01:12:47;;;;;;;20.98;12.63;;;2.90;65.00;;;;;;5054474;28;20024;-61
2022/02/15 01:15:16;;;;;;;25.52;15.43;;;2.80;65.00;;;;;;5057342;28;20036;-61
2022/02/15 01:17:43;;;;;;;23.25;14.05;;;2.70;65.10;;;;;;5074823;28;20495;-61
2022/02/15 01:20:10;;;;;;;28.80;15.95;;;2.60;65.20;;;;;;5074397;28;20028;-61
2022/02/15 01:22:36;;;;;;;28.63;15.90;;;2.60;65.40;;;;;;5074405;28;20100;-61
2022/02/15 01:25:03;;;;;;;28.00;16.35;;;2.50;65.50;;;;;;5074256;28;20021;-61
2022/02/15 01:27:28;;;;;;;25.65;14.30;;;2.50;65.60;;;;;;5074446;28;20077;-61
2022/02/15 01:29:54;;;;;;;24.83;16.17;;;2.50;65.70;;;;;;5059275;28;20028;-61
2022/02/15 01:32:20;;;;;;;20.38;12.57;;;2.50;65.80;;;;;;5057700;28;20035;-61
2022/02/15 01:34:46;;;;;;;23.02;13.05;;;2.40;65.80;;;;;;5070563;28;20127;-61
2022/02/15 01:37:11;;;;;;;21.27;13.95;;;2.40;65.80;;;;;;5054074;28;20061;-61
2022/02/15 01:39:37;;;;;;;22.13;12.93;;;2.50;65.90;;;;;;5054153;28;20523;-61
2022/02/15 01:42:03;;;;;;;15.88;9.90;;;2.50;65.80;;;;;;5054240;28;20364;-61
2022/02/15 01:44:30;;;;;;;18.38;11.07;;;2.50;65.80;;;;;;5053897;28;20104;-61
2022/02/15 01:46:57;;;;;;;17.23;10.20;;;2.50;65.80;;;;;;5054063;28;20416;-61
2022/02/15 01:49:22;;;;;;;17.20;11.45;;;2.50;65.80;;;;;;5053674;28;20377;-61
2022/02/15 01:51:49;;;;;;;15.43;9.57;;;2.40;65.90;;;;;;5053616;28;20040;-61
2022/02/15 01:54:15;;;;;;;17.25;10.00;;;2.50;65.80;;;;;;5053811;28;20025;-61
2022/02/15 01:56:41;;;;;;;21.60;12.25;;;2.50;65.80;;;;;;5052516;28;20052;-61
2022/02/15 01:59:06;;;;;;;21.25;13.27;;;2.50;65.90;;;;;;5053225;28;20060;-61
2022/02/15 02:01:32;;;;;;;20.17;13.40;;;2.50;65.90;;;;;;5042194;28;20382;-61
2022/02/15 02:03:58;;;;;;;21.90;14.73;;;2.40;65.90;;;;;;5040730;28;20026;-61
2022/02/15 02:06:25;;;;;;;23.08;13.63;;;2.40;66.10;;;;;;5060714;28;20029;-61
2022/02/15 02:08:50;;;;;;;20.25;12.30;;;2.30;66.10;;;;;;5053662;28;20017;-61
2022/02/15 02:11:16;;;;;;;23.80;13.30;;;2.20;66.30;;;;;;5053393;28;20054;-61
2022/02/15 02:13:43;;;;;;;22.42;12.85;;;2.20;66.40;;;;;;5053174;28;20099;-61
2022/02/15 02:16:09;;;;;;;18.60;11.45;;;2.10;66.50;;;;;;5051861;28;20040;-61
2022/02/15 02:18:35;;;;;;;25.25;13.40;;;2.10;66.60;;;;;;5046075;28;20025;-61
2022/02/15 02:21:03;;;;;;;25.35;13.25;;;2.10;66.60;;;;;;5057788;28;20078;-61
2022/02/15 02:23:30;;;;;;;19.40;12.10;;;2.10;66.70;;;;;;5064174;28;20053;-61
2022/02/15 02:25:56;;;;;;;22.45;12.88;;;2.10;66.80;;;;;;5067460;28;20021;-61
2022/02/15 02:28:21;;;;;;;23.85;11.98;;;2.10;66.80;;;;;;5053228;28;20377;-61
2022/02/15 02:30:47;;;;;;;16.33;10.60;;;2.10;66.80;;;;;;5053334;28;20044;-61
2022/02/15 02:33:13;;;;;;;17.50;10.60;;;2.10;66.90;;;;;;5052915;28;20082;-61
2022/02/15 02:35:39;;;;;;;15.65;9.50;;;2.00;67.00;;;;;;5053071;28;20056;-61
2022/02/15 02:38:04;;;;;;;17.08;10.75;;;2.00;67.50;;;;;;5053090;28;20029;-61
2022/02/15 02:40:30;;;;;;;15.07;9.45;;;1.90;67.70;;;;;;5055165;28;20036;-61
2022/02/15 02:42:56;;;;;;;17.08;9.57;;;1.80;68.10;;;;;;5073030;28;20487;-61
2022/02/15 02:45:22;;;;;;;18.15;10.32;;;1.80;68.40;;;;;;5073197;28;20025;-61
2022/02/15 02:47:51;;;;;;;16.17;10.48;;;1.70;68.60;;;;;;5075720;28;20020;-61
2022/02/15 02:50:18;;;;;;;14.48;8.48;;;1.70;68.90;;;;;;5077183;28;20156;-61
2022/02/15 02:52:45;;;;;;;14.05;9.18;;;1.70;69.20;;;;;;5077109;28;20033;-61
2022/02/15 02:55:11;;;;;;;11.85;8.25;;;1.70;69.50;;;;;;5077013;28;20109;-61
2022/02/15 02:57:37;;;;;;;13.73;8.43;;;1.60;69.60;;;;;;5070502;28;20538;-61
2022/02/15 03:00:11;;;;;;;17.55;9.45;;;1.60;69.90;;;;;;5044135;28;20036;-61
2022/02/15 03:02:37;;;;;;;13.38;7.80;;;1.50;70.00;;;;;;5056872;28;20103;-61
2022/02/15 03:05:03;;;;;;;16.20;8.57;;;1.50;70.50;;;;;;5068133;28;20104;-61
2022/02/15 03:07:29;;;;;;;16.48;8.90;;;1.50;70.40;;;;;;5043032;28;20101;-61
2022/02/15 03:09:55;;;;;;;17.35;9.07;;;1.40;70.50;;;;;;5062617;28;20056;-61
2022/02/15 03:12:21;;;;;;;14.68;9.10;;;1.50;70.70;;;;;;5060425;28;20082;-61
2022/02/15 03:14:47;;;;;;;16.50;9.65;;;1.50;70.70;;;;;;5065082;28;20093;-61
2022/02/15 03:17:14;;;;;;;16.05;10.10;;;1.50;70.80;;;;;;5074005;28;20384;-61
2022/02/15 03:19:39;;;;;;;17.83;10.38;;;1.50;70.90;;;;;;5071017;28;20116;-61
2022/02/15 03:22:05;;;;;;;15.90;9.43;;;1.50;70.80;;;;;;5076600;28;20099;-61
2022/02/15 03:24:33;;;;;;;17.08;10.55;;;1.50;70.90;;;;;;5060889;28;20021;-61
2022/02/15 03:26:59;;;;;;;16.48;8.38;;;1.60;70.90;;;;;;5056320;28;20064;-60
2022/02/15 03:29:25;;;;;;;16.48;10.63;;;1.50;71.00;;;;;;5056780;28;20458;-61
2022/02/15 03:31:51;;;;;;;15.77;9.13;;;1.50;71.30;;;;;;5056115;28;20104;-61
2022/02/15 03:34:16;;;;;;;17.90;9.70;;;1.60;71.40;;;;;;5056185;28;20852;-61
2022/02/15 03:36:42;;;;;;;14.55;9.45;;;1.60;71.60;;;;;;5055994;28;20488;-61
2022/02/15 03:39:10;;;;;;;15.55;9.93;;;1.60;71.60;;;;;;5055775;28;20066;-61
2022/02/15 03:44:21;;;;;;;18.58;10.07;;;1.60;71.70;;;;;;5068365;28;20104;-61
2022/02/15 03:46:48;;;;;;;18.60;9.52;;;1.60;71.90;;;;;;5072159;28;20043;-61
2022/02/15 03:49:14;;;;;;;17.60;10.05;;;1.60;72.00;;;;;;5069871;28;20020;-61
2022/02/15 03:51:40;;;;;;;15.43;9.15;;;1.60;72.20;;;;;;5076020;28;20047;-61
2022/02/15 03:54:07;;;;;;;17.17;9.13;;;1.60;72.40;;;;;;5075834;28;20025;-61
2022/02/15 03:56:33;;;;;;;15.25;8.40;;;1.70;72.40;;;;;;5073595;28;20542;-61
2022/02/15 03:59:00;;;;;;;16.10;8.80;;;1.60;72.40;;;;;;5048674;28;20146;-61
2022/02/15 04:01:25;;;;;;;17.88;9.77;;;1.60;72.50;;;;;;5055619;28;20056;-61
2022/02/15 04:03:51;;;;;;;20.60;11.45;;;1.70;72.60;;;;;;5056773;28;20052;-61
2022/02/15 04:06:17;;;;;;;18.70;10.32;;;1.60;72.60;;;;;;5065722;28;20025;-61
2022/02/15 04:08:43;;;;;;;16.60;9.48;;;1.70;72.70;;;;;;5072133;28;20049;-61
2022/02/15 04:11:09;;;;;;;17.63;8.68;;;1.70;72.80;;;;;;5050120;28;20108;-61
2022/02/15 04:13:34;;;;;;;14.57;9.18;;;1.70;72.90;;;;;;5061548;28;20123;-61
2022/02/15 04:16:00;;;;;;;17.23;9.13;;;1.60;73.00;;;;;;5075374;28;20035;-61
2022/02/15 04:18:26;;;;;;;17.67;9.07;;;1.60;73.10;;;;;;5045566;28;20021;-61
2022/02/15 04:20:51;;;;;;;18.80;9.55;;;1.60;73.40;;;;;;5055548;28;20061;-61
2022/02/15 04:23:17;;;;;;;19.35;10.23;;;1.50;73.30;;;;;;5055191;28;20033;-61
2022/02/15 04:25:43;;;;;;;14.93;9.40;;;1.50;73.30;;;;;;5055529;28;20071;-61
2022/02/15 04:28:08;;;;;;;17.17;9.23;;;1.50;73.50;;;;;;5055141;28;20433;-61
2022/02/15 04:30:35;;;;;;;21.17;10.32;;;1.60;73.60;;;;;;5055617;28;20029;-61
2022/02/15 04:33:02;;;;;;;14.85;9.00;;;1.60;73.40;;;;;;5055356;28;20408;-61
2022/02/15 04:35:27;;;;;;;16.30;9.00;;;1.70;73.60;;;;;;5054812;28;20413;-61
2022/02/15 04:37:53;;;;;;;17.13;10.02;;;1.70;73.40;;;;;;5055155;28;20031;-61
2022/02/15 04:40:19;;;;;;;15.57;9.13;;;1.80;73.30;;;;;;5054627;28;20392;-61
2022/02/15 04:42:45;;;;;;;17.08;10.45;;;1.80;73.20;;;;;;5055112;28;20029;-61
2022/02/15 04:45:12;;;;;;;14.77;8.50;;;1.90;73.20;;;;;;5054931;28;20029;-61
2022/02/15 04:47:39;;;;;;;19.38;10.50;;;2.00;73.20;;;;;;5055116;28;20120;-61
2022/02/15 04:50:05;;;;;;;17.38;10.40;;;1.90;73.00;;;;;;5054993;28;20060;-61
2022/02/15 04:52:31;;;;;;;15.23;9.75;;;1.90;73.00;;;;;;5054742;28;20040;-61
2022/02/15 04:54:57;;;;;;;14.55;10.07;;;1.90;73.10;;;;;;5053534;28;20033;-61
2022/02/15 04:57:23;;;;;;;16.58;9.85;;;1.90;73.10;;;;;;5054775;28;20029;-61
2022/02/15 04:59:48;;;;;;;20.65;10.88;;;1.90;73.40;;;;;;5043988;28;20556;-61
2022/02/15 05:02:14;;;;;;;16.55;8.88;;;1.80;73.30;;;;;;5049686;28;20484;-61
2022/02/15 05:04:49;;;;;;;20.05;9.98;;;1.80;73.40;;;;;;5063910;28;20029;-61
2022/02/15 05:07:19;;;;;;;19.25;9.77;;;1.80;73.60;;;;;;5054582;28;20028;-61
2022/02/15 05:09:45;;;;;;;14.90;9.63;;;1.70;73.50;;;;;;5053147;28;20033;-61
2022/02/15 05:12:12;;;;;;;15.15;9.18;;;1.70;73.90;;;;;;5054385;28;20037;-61
2022/02/15 05:14:38;;;;;;;18.50;10.60;;;1.60;74.30;;;;;;5053943;28;20033;-61
2022/02/15 05:17:04;;;;;;;19.70;11.15;;;1.50;73.80;;;;;;5045379;28;20469;-61
2022/02/15 05:19:31;;;;;;;12.80;8.38;;;1.50;74.10;;;;;;5049313;28;20028;-61
2022/02/15 05:21:56;;;;;;;16.77;10.07;;;1.40;74.30;;;;;;5074612;28;20027;-61
2022/02/15 05:24:22;;;;;;;17.50;9.60;;;1.40;74.30;;;;;;5074311;28;20543;-61
2022/02/15 05:26:47;;;;;;;19.48;9.98;;;1.40;75.10;;;;;;5074275;28;20537;-61
2022/02/15 05:29:13;;;;;;;16.42;9.60;;;1.40;74.80;;;;;;5074196;28;20372;-61
2022/02/15 05:31:39;;;;;;;16.17;9.45;;;1.40;75.10;;;;;;5066776;28;20028;-61
2022/02/15 05:34:04;;;;;;;17.05;9.95;;;1.40;75.00;;;;;;5061476;28;20114;-61
2022/02/15 05:36:33;;;;;;;14.55;9.05;;;1.30;74.80;;;;;;5053714;28;20420;-61
2022/02/15 05:38:59;;;;;;;20.80;10.10;;;1.40;74.90;;;;;;5053228;28;20056;-61
2022/02/15 05:41:25;;;;;;;18.33;9.77;;;1.40;75.00;;;;;;5054129;28;20032;-61
2022/02/15 05:43:52;;;;;;;13.20;8.75;;;1.50;74.90;;;;;;5053226;28;20017;-61
2022/02/15 05:46:17;;;;;;;15.45;9.43;;;1.60;74.80;;;;;;5053626;28;20033;-61
2022/02/15 05:48:43;;;;;;;18.73;9.68;;;1.60;74.80;;;;;;5060150;28;20027;-61
2022/02/15 05:51:09;;;;;;;13.07;8.50;;;1.60;74.60;;;;;;5073929;28;20024;-61
2022/02/15 05:53:34;;;;;;;18.02;11.77;;;1.70;74.60;;;;;;5050689;28;20850;-61
2022/02/15 05:56:02;;;;;;;18.92;9.35;;;1.80;74.50;;;;;;5045153;28;20032;-61
2022/02/15 05:58:29;;;;;;;15.35;8.82;;;1.90;74.40;;;;;;5048321;28;20112;-61
2022/02/15 06:00:56;;;;;;;17.92;10.18;;;1.90;74.10;;;;;;5058971;28;20029;-62
2022/02/15 06:06:06;;;;;;;14.05;8.68;;;2.10;73.30;;;;;;5054289;28;20032;-61
2022/02/15 06:08:32;;;;;;;15.88;10.55;;;2.20;72.80;;;;;;5051891;28;20088;-61
2022/02/15 06:10:58;;;;;;;14.38;9.07;;;2.30;73.00;;;;;;5043593;28;20035;-61
2022/02/15 06:13:23;;;;;;;16.83;10.27;;;2.50;72.10;;;;;;5056523;28;20052;-61
2022/02/15 06:15:49;;;;;;;14.95;9.40;;;2.60;71.70;;;;;;5048733;28;20377;-61
2022/02/15 06:18:15;;;;;;;13.75;9.32;;;2.70;71.10;;;;;;5048063;28;20050;-61
2022/02/15 06:20:41;;;;;;;14.95;9.75;;;2.70;70.70;;;;;;5049231;28;20036;-62
2022/02/15 06:23:07;;;;;;;14.02;8.82;;;2.80;70.40;;;;;;5046883;28;20028;-61
2022/02/15 06:25:34;;;;;;;15.68;11.43;;;2.80;70.10;;;;;;5047841;28;20436;-61
2022/02/15 06:28:00;;;;;;;16.55;10.90;;;2.90;69.70;;;;;;5045378;28;20049;-61
2022/02/15 06:30:26;;;;;;;13.32;9.10;;;2.90;69.30;;;;;;5051134;28;20072;-61
2022/02/15 06:32:52;;;;;;;13.68;9.32;;;3.00;69.20;;;;;;5051873;28;20495;-61
2022/02/15 06:35:18;;;;;;;23.13;11.45;;;3.00;69.00;;;;;;5045914;28;20123;-61
2022/02/15 06:37:48;;;;;;;15.13;8.98;;;3.00;68.90;;;;;;5054364;28;20119;-61
2022/02/15 06:40:16;;;;;;;14.93;9.35;;;3.10;68.60;;;;;;5050550;28;20033;-61
2022/02/15 06:42:43;;;;;;;15.10;11.10;;;3.10;68.50;;;;;;5044335;28;20025;-62
2022/02/15 06:45:09;;;;;;;13.73;9.05;;;3.10;68.30;;;;;;5041572;28;20017;-62
2022/02/15 06:47:35;;;;;;;14.27;10.27;;;3.10;68.80;;;;;;5039450;28;20017;-62
2022/02/15 06:50:02;;;;;;;16.52;9.85;;;3.20;68.20;;;;;;5040306;28;20032;-61
2022/02/15 06:52:28;;;;;;;14.82;10.13;;;3.20;68.10;;;;;;5045693;28;20044;-61
2022/02/15 06:54:54;;;;;;;20.15;10.52;;;3.30;67.70;;;;;;5042789;28;20033;-61
2022/02/15 06:57:20;;;;;;;14.30;11.07;;;3.40;67.40;;;;;;5055463;28;20412;-62
2022/02/15 06:59:46;;;;;;;20.27;11.38;;;3.30;67.20;;;;;;5056603;28;20525;-62
2022/02/15 07:02:12;;;;;;;14.80;10.63;;;3.20;67.20;;;;;;5034607;28;20025;-61
2022/02/15 07:04:38;;;;;;;13.38;9.48;;;3.20;67.50;;;;;;5042222;28;20022;-62
2022/02/15 07:07:04;;;;;;;13.27;9.82;;;3.20;67.60;;;;;;5038034;28;20036;-61
2022/02/15 07:09:31;;;;;;;18.00;10.07;;;3.20;67.70;;;;;;5044383;28;20021;-61
2022/02/15 07:11:57;;;;;;;13.05;9.52;;;3.30;67.90;;;;;;5039766;28;20033;-62
2022/02/15 07:14:22;;;;;;;13.50;9.05;;;3.30;67.60;;;;;;5041939;28;20076;-63
2022/02/15 07:16:48;;;;;;;16.60;10.73;;;3.40;67.50;;;;;;5038672;28;20029;-61
2022/02/15 07:19:14;;;;;;;14.13;11.65;;;3.40;67.80;;;;;;5042202;28;20048;-62
2022/02/15 07:21:42;;;;;;;17.38;11.90;;;3.50;67.70;;;;;;5045680;28;20035;-62
2022/02/15 07:24:08;;;;;;;15.98;10.60;;;3.50;67.60;;;;;;5044348;28;20033;-61
2022/02/15 07:26:34;;;;;;;17.75;12.63;;;3.40;67.60;;;;;;5046505;28;20191;-62
2022/02/15 07:28:59;;;;;;;15.25;11.05;;;3.40;67.80;;;;;;5035255;28;20055;-61
2022/02/15 07:31:25;;;;;;;17.02;12.18;;;3.30;68.10;;;;;;5040416;28;20029;-62
2022/02/15 07:33:51;;;;;;;18.50;11.98;;;3.30;68.20;;;;;;5041858;28;20060;-61
2022/02/15 07:36:16;;;;;;;16.30;9.48;;;3.30;68.30;;;;;;5048563;28;20040;-62
2022/02/15 07:38:43;;;;;;;17.35;12.00;;;3.20;68.40;;;;;;5046346;28;20033;-61
2022/02/15 07:41:09;;;;;;;14.35;10.90;;;3.10;68.80;;;;;;5048958;28;20508;-61
2022/02/15 07:43:34;;;;;;;15.88;10.32;;;3.10;69.30;;;;;;5047208;28;20057;-61
2022/02/15 07:46:00;;;;;;;16.40;10.55;;;3.00;69.30;;;;;;5048954;28;20456;-61
2022/02/15 07:48:26;;;;;;;16.45;10.10;;;3.00;70.20;;;;;;5050321;28;20029;-61
2022/02/15 07:50:52;;;;;;;14.93;10.10;;;2.90;70.40;;;;;;5043689;28;20028;-61
2022/02/15 07:53:18;;;;;;;15.00;10.93;;;2.80;70.90;;;;;;5047415;28;20083;-61
2022/02/15 07:55:43;;;;;;;16.48;11.75;;;2.80;71.60;;;;;;5039263;28;20032;-62
2022/02/15 07:58:09;;;;;;;14.93;9.50;;;2.80;71.90;;;;;;5047942;28;20676;-62
2022/02/15 08:00:35;;;;;;;14.57;10.18;;;2.80;71.90;;;;;;5045989;28;20123;-61
2022/02/15 08:03:00;;;;;;;17.35;9.98;;;2.80;72.30;;;;;;5046258;28;20029;-61
2022/02/15 08:05:28;;;;;;;14.20;9.82;;;2.80;72.20;;;;;;5046738;28;20031;-61
2022/02/15 08:07:55;;;;;;;16.08;9.68;;;2.80;72.50;;;;;;5042271;28;20112;-61
2022/02/15 08:10:23;;;;;;;16.30;10.95;;;2.80;72.50;;;;;;5051226;28;20114;-61
2022/02/15 08:12:55;;;;;;;16.45;10.40;;;2.70;72.50;;;;;;5050543;28;20177;-61
2022/02/15 08:15:28;;;;;;;19.08;11.52;;;2.80;72.60;;;;;;5051488;28;20028;-61
2022/02/15 08:17:54;;;;;;;19.38;12.80;;;2.80;72.70;;;;;;5047283;28;20033;-61
2022/02/15 08:20:20;;;;;;;16.42;10.93;;;2.80;72.80;;;;;;5041446;28;20040;-61
2022/02/15 08:22:46;;;;;;;16.95;10.02;;;2.70;72.70;;;;;;5040646;28;20103;-61
2022/02/15 08:25:12;;;;;;;18.25;13.02;;;2.70;72.90;;;;;;5041519;28;20060;-61
2022/02/15 08:27:38;;;;;;;18.08;12.85;;;2.70;73.20;;;;;;5047739;28;20103;-61
2022/02/15 08:30:05;;;;;;;17.38;13.23;;;2.70;73.30;;;;;;5045878;28;20571;-61
2022/02/15 08:32:31;;;;;;;19.95;13.00;;;2.70;73.50;;;;;;5045014;28;20033;-61
2022/02/15 08:34:57;;;;;;;16.50;12.88;;;2.60;73.60;;;;;;5044575;28;20057;-62
2022/02/15 08:37:22;;;;;;;19.02;11.90;;;2.70;73.70;;;;;;5042878;28;20025;-60
2022/02/15 08:39:48;;;;;;;16.67;10.63;;;2.60;73.70;;;;;;5038704;28;20060;-61
2022/02/15 08:42:14;;;;;;;16.98;11.23;;;2.60;73.60;;;;;;5041787;28;20033;-62
2022/02/15 08:44:39;;;;;;;17.73;11.60;;;2.60;73.70;;;;;;5035597;28;20021;-61
2022/02/15 08:47:06;;;;;;;16.65;10.65;;;2.50;73.90;;;;;;5039593;28;20033;-61
2022/02/15 08:49:33;;;;;;;17.70;11.52;;;2.50;73.70;;;;;;5044578;28;20574;-61
2022/02/15 08:51:59;;;;;;;17.05;10.45;;;2.60;73.80;;;;;;5042093;28;20071;-61
2022/02/15 08:54:25;;;;;;;15.43;11.57;;;2.60;73.80;;;;;;5046487;28;20139;-61
2022/02/15 08:56:50;;;;;;;15.63;10.57;;;2.60;73.80;;;;;;5041479;28;20130;-61
2022/02/15 08:59:16;;;;;;;17.60;10.52;;;2.60;73.70;;;;;;5043258;28;20056;-60
2022/02/15 09:01:42;;;;;;;20.50;11.95;;;2.70;74.00;;;;;;5039071;28;20036;-61
2022/02/15 09:04:09;;;;;;;19.30;12.60;;;2.70;74.00;;;;;;5041592;28;20029;-61
2022/02/15 09:06:36;;;;;;;21.88;12.50;;;2.80;74.20;;;;;;5044070;28;20040;-62
2022/02/15 09:09:03;;;;;;;22.45;13.68;;;2.90;74.00;;;;;;5047548;28;20028;-61
2022/02/15 09:11:28;;;;;;;20.38;14.13;;;3.10;74.00;;;;;;5049188;28;20116;-61
2022/02/15 09:13:54;;;;;;;19.02;12.18;;;3.20;73.90;;;;;;5049481;28;20165;-61
2022/02/15 09:16:20;;;;;;;17.35;12.95;;;3.40;73.70;;;;;;5042419;28;20029;-61
2022/02/15 09:18:45;;;;;;;16.83;12.13;;;3.40;73.30;;;;;;5035622;28;20365;-62
2022/02/15 09:21:11;;;;;;;16.73;12.50;;;3.50;72.80;;;;;;5042601;28;21676;-60
2022/02/15 09:23:37;;;;;;;18.63;12.70;;;3.40;72.50;;;;;;5048595;28;20033;-60
2022/02/15 09:26:03;;;;;;;20.13;13.00;;;3.30;72.60;;;;;;5043670;28;20112;-61
2022/02/15 09:28:29;;;;;;;22.17;14.18;;;3.20;72.80;;;;;;5045670;28;20042;-62
2022/02/15 09:30:54;;;;;;;21.45;14.02;;;3.20;73.10;;;;;;5044586;28;20496;-62
2022/02/15 09:33:21;;;;;;;22.02;14.90;;;3.10;73.30;;;;;;5036162;28;20036;-60
2022/02/15 09:35:47;;;;;;;24.33;15.23;;;3.00;73.60;;;;;;5042619;28;20052;-61
2022/02/15 09:38:14;;;;;;;18.83;13.02;;;2.90;73.90;;;;;;5043430;28;20488;-61
2022/02/15 09:40:40;;;;;;;19.98;14.48;;;2.80;74.50;;;;;;5038935;28;20131;-62
2022/02/15 09:43:08;;;;;;;17.92;11.70;;;2.80;74.50;;;;;;5035721;28;20048;-61
2022/02/15 09:45:35;;;;;;;18.55;13.77;;;2.70;74.60;;;;;;5037209;28;20037;-61
2022/02/15 09:48:03;;;;;;;19.42;12.35;;;2.70;74.90;;;;;;5040464;28;20511;-62
2022/02/15 09:50:32;;;;;;;20.30;14.07;;;2.70;75.00;;;;;;5036550;28;20540;-61
2022/02/15 09:52:59;;;;;;;18.27;13.25;;;2.60;75.20;;;;;;5036137;28;20029;-61
2022/02/15 09:55:24;;;;;;;19.35;12.85;;;2.60;75.30;;;;;;5045307;28;20116;-61
2022/02/15 09:57:50;;;;;;;19.83;12.35;;;2.60;75.50;;;;;;5042297;28;20029;-61
2022/02/15 10:00:21;;;;;;;21.50;13.23;;;2.60;75.40;;;;;;5032889;28;20083;-61
2022/02/15 10:02:48;;;;;;;21.35;13.52;;;2.60;75.70;;;;;;5034992;28;20746;-62
2022/02/15 10:05:19;;;;;;;17.92;12.82;;;2.70;75.40;;;;;;5041422;28;20017;-61
2022/02/15 10:07:47;;;;;;;19.58;12.02;;;2.70;75.00;;;;;;5035139;28;20025;-61
2022/02/15 10:10:13;;;;;;;21.92;12.38;;;2.70;75.60;;;;;;5039487;28;20032;-61
2022/02/15 10:12:39;;;;;;;24.20;14.75;;;2.70;74.90;;;;;;5038505;28;20033;-61
2022/02/15 10:15:09;;;;;;;20.23;12.68;;;2.70;75.10;;;;;;5035551;28;20036;-62
2022/02/15 10:17:37;;;;;;;19.55;13.65;;;2.70;75.10;;;;;;5029353;28;20040;-62
2022/02/15 10:20:04;;;;;;;23.63;12.88;;;2.60;75.40;;;;;;5041234;28;20091;-61
2022/02/15 10:22:29;;;;;;;20.88;14.38;;;2.60;75.50;;;;;;5045119;28;20102;-60
2022/02/15 10:24:59;;;;;;;21.92;13.73;;;2.60;75.70;;;;;;5039976;28;20108;-61
2022/02/15 10:27:28;;;;;;;23.17;14.30;;;2.60;75.90;;;;;;5035488;28;20033;-61
2022/02/15 10:29:55;;;;;;;18.55;11.70;;;2.60;76.60;;;;;;5037597;28;20052;-62
2022/02/15 10:32:22;;;;;;;19.50;14.02;;;2.60;76.00;;;;;;5031484;28;20041;-61
2022/02/15 10:34:51;;;;;;;21.15;14.40;;;2.60;75.90;;;;;;5039277;28;20040;-61
2022/02/15 10:37:17;;;;;;;17.15;11.43;;;2.60;76.00;;;;;;5044009;28;20403;-60
2022/02/15 10:39:50;;;;;;;16.83;11.30;;;2.60;76.30;;;;;;5038482;28;20083;-62
2022/02/15 10:42:23;;;;;;;16.95;10.25;;;2.60;76.00;;;;;;5043583;28;20025;-61
2022/02/15 10:44:48;;;;;;;17.08;11.05;;;2.70;75.70;;;;;;5038995;28;20075;-61
2022/02/15 10:47:15;;;;;;;18.83;11.43;;;2.80;75.40;;;;;;5036704;28;20032;-60
2022/02/15 10:49:42;;;;;;;22.67;11.25;;;2.80;74.90;;;;;;5037588;28;20433;-61
2022/02/15 10:52:09;;;;;;;20.10;11.35;;;2.80;74.60;;;;;;5030572;28;20037;-61
2022/02/15 10:54:36;;;;;;;15.40;11.60;;;2.90;74.50;;;;;;5034407;28;20099;-61
2022/02/15 10:57:03;;;;;;;16.67;11.77;;;2.90;74.40;;;;;;5034007;28;20098;-61
2022/02/15 10:59:32;;;;;;;19.60;13.48;;;2.90;74.20;;;;;;5032422;28;20032;-63
2022/02/15 11:02:00;;;;;;;18.33;11.68;;;3.00;74.50;;;;;;5043985;28;20602;-61
2022/02/15 11:04:34;;;;;;;18.27;12.07;;;3.00;74.30;;;;;;5042096;28;20092;-60
2022/02/15 11:07:05;;;;;;;17.42;12.32;;;3.00;74.20;;;;;;5038975;28;20032;-61
2022/02/15 11:09:37;;;;;;;16.80;11.50;;;3.00;73.80;;;;;;5044767;28;20021;-61
2022/02/15 11:12:17;;;;;;;19.25;11.38;;;3.00;73.50;;;;;;5040193;28;20029;-61
2022/02/15 11:14:54;;;;;;;19.83;13.20;;;3.10;73.80;;;;;;5050119;28;20036;-61
2022/02/15 11:17:20;;;;;;;20.48;12.85;;;3.10;73.70;;;;;;5042272;28;20028;-61
2022/02/15 11:20:00;;;;;;;21.02;13.57;;;3.10;73.80;;;;;;5046314;28;20063;-61
2022/02/15 11:22:26;;;;;;;22.25;14.55;;;3.20;73.90;;;;;;5044896;28;22067;-62
2022/02/15 11:24:51;;;;;;;20.77;12.73;;;3.20;73.80;;;;;;5043563;28;20109;-61
2022/02/15 11:27:19;;;;;;;19.73;13.80;;;3.20;73.70;;;;;;5044186;28;20382;-61
2022/02/15 11:30:04;;;;;;;20.95;13.30;;;3.20;73.80;;;;;;5037330;28;20037;-62
2022/02/15 11:32:34;;;;;;;21.38;13.25;;;3.30;73.80;;;;;;5035134;28;20489;-62
2022/02/15 11:35:13;;;;;;;18.42;12.02;;;3.30;73.80;;;;;;5046615;28;20047;-62
2022/02/15 11:37:39;;;;;;;17.65;12.45;;;3.30;74.00;;;;;;5047544;28;20603;-61
2022/02/15 11:40:08;;;;;;;18.88;12.68;;;3.30;74.00;;;;;;5044106;28;20120;-61
2022/02/15 11:43:03;;;;;;;19.77;12.48;;;3.30;73.90;;;;;;5036101;28;20029;-61
2022/02/15 11:45:29;;;;;;;20.23;14.00;;;3.40;73.80;;;;;;5043177;28;20043;-61
2022/02/15 11:48:09;;;;;;;20.77;12.40;;;3.30;73.70;;;;;;5031372;28;20036;-61
2022/02/15 11:50:47;;;;;;;15.90;12.10;;;3.40;73.80;;;;;;5030330;28;20126;-62
2022/02/15 11:53:13;;;;;;;17.27;12.32;;;3.40;73.80;;;;;;5044522;28;20056;-61
2022/02/15 11:55:41;;;;;;;17.40;12.80;;;3.40;73.60;;;;;;5042464;28;20025;-61
2022/02/15 11:58:08;;;;;;;18.83;12.77;;;3.50;73.60;;;;;;5029494;28;20238;-61
2022/02/15 12:00:36;;;;;;;21.23;12.35;;;3.50;73.20;;;;;;5044805;28;20028;-61
2022/02/15 12:03:02;;;;;;;16.27;12.02;;;3.50;73.10;;;;;;5038532;28;20112;-61
2022/02/15 12:05:34;;;;;;;17.45;12.10;;;3.60;73.10;;;;;;5042252;28;20103;-60
2022/02/15 12:08:00;;;;;;;17.88;12.27;;;3.60;72.90;;;;;;5042777;28;20032;-61
2022/02/15 12:10:37;;;;;;;20.55;13.57;;;3.70;72.90;;;;;;5051719;28;20037;-61
2022/02/15 12:13:17;;;;;;;20.27;12.52;;;3.70;72.90;;;;;;5035530;28;20033;-61
2022/02/15 12:15:52;;;;;;;22.17;11.80;;;3.70;72.30;;;;;;5040780;28;20765;-61
2022/02/15 12:18:31;;;;;;;16.17;11.10;;;3.80;73.00;;;;;;5043613;28;20058;-61
2022/02/15 12:20:57;;;;;;;18.30;11.60;;;3.80;72.10;;;;;;5045733;28;20055;-61
2022/02/15 12:23:27;;;;;;;15.48;11.10;;;3.80;72.10;;;;;;5038205;28;20787;-60
2022/02/15 12:25:52;;;;;;;14.60;10.35;;;3.80;72.10;;;;;;5037318;28;20036;-61
2022/02/15 12:28:23;;;;;;;19.38;10.95;;;3.80;72.10;;;;;;5043228;28;20119;-61
2022/02/15 12:30:49;;;;;;;17.67;10.93;;;3.90;71.90;;;;;;5040575;28;20500;-61
2022/02/15 12:33:14;;;;;;;15.45;10.90;;;3.90;72.00;;;;;;5043691;28;20124;-61
2022/02/15 12:35:40;;;;;;;13.98;10.27;;;3.90;72.20;;;;;;5041741;28;20068;-61
2022/02/15 12:38:06;;;;;;;13.95;11.15;;;3.90;72.20;;;;;;5044501;28;20102;-61
2022/02/15 12:40:32;;;;;;;14.45;10.45;;;3.90;72.10;;;;;;5046772;28;20035;-61
2022/02/15 12:42:58;;;;;;;15.27;11.70;;;3.90;72.20;;;;;;5041295;28;20047;-62
2022/02/15 12:45:24;;;;;;;15.35;10.50;;;3.90;72.30;;;;;;5038472;28;20021;-61
2022/02/15 12:47:50;;;;;;;13.85;10.35;;;3.90;72.50;;;;;;5045611;28;20115;-61